sensor_id;sensor_type;location;lat;lon;timestamp;P1;durP1;ratioP1;P2;durP2;ratioP2
71106;SDS011;58763;47.982;11.516;2023-07-16T00:00:43;10.60;;;4.60;;
71106;SDS011;58763;47.982;11.516;2023-07-16T00:03:08;6.45;;;4.20;;
71106;SDS011;58763;47.982;11.516;2023-07-16T00:05:34;10.48;;;4.82;;
71106;SDS011;58763;47.982;11.516;2023-07-16T00:08:01;6.55;;;4.63;;
71106;SDS011;58763;47.982;11.516;2023-07-16T00:10:27;6.60;;;4.40;;
71106;SDS011;58763;47.982;11.516;2023-07-16T00:12:52;7.00;;;4.72;;
71106;SDS011;58763;47.982;11.516;2023-07-16T00:15:18;8.88;;;4.43;;
71106;SDS011;58763;47.982;11.516;2023-07-16T00:17:43;7.70;;;4.43;;
71106;SDS011;58763;47.982;11.516;2023-07-16T00:20:08;6.65;;;4.20;;
71106;SDS011;58763;47.982;11.516;2023-07-16T00:22:35;8.82;;;4.30;;
71106;SDS011;58763;47.982;11.516;2023-07-16T00:25:00;7.32;;;4.35;;
71106;SDS011;58763;47.982;11.516;2023-07-16T00:27:25;7.07;;;4.30;;
71106;SDS011;58763;47.982;11.516;2023-07-16T00:29:51;7.50;;;4.28;;
71106;SDS011;58763;47.982;11.516;2023-07-16T00:32:16;7.70;;;4.40;;
71106;SDS011;58763;47.982;11.516;2023-07-16T00:34:42;8.68;;;4.93;;
71106;SDS011;58763;47.982;11.516;2023-07-16T00:37:07;8.88;;;4.35;;
71106;SDS011;58763;47.982;11.516;2023-07-16T00:39:33;9.40;;;4.78;;
71106;SDS011;58763;47.982;11.516;2023-07-16T00:41:58;9.45;;;4.78;;
71106;SDS011;58763;47.982;11.516;2023-07-16T00:44:23;8.38;;;4.22;;
71106;SDS011;58763;47.982;11.516;2023-07-16T00:46:49;8.25;;;4.55;;
71106;SDS011;58763;47.982;11.516;2023-07-16T00:49:15;6.47;;;4.57;;
71106;SDS011;58763;47.982;11.516;2023-07-16T00:51:41;7.18;;;4.10;;
71106;SDS011;58763;47.982;11.516;2023-07-16T00:54:07;6.28;;;3.90;;
71106;SDS011;58763;47.982;11.516;2023-07-16T00:56:33;9.02;;;4.50;;
71106;SDS011;58763;47.982;11.516;2023-07-16T00:58:59;9.50;;;4.68;;
71106;SDS011;58763;47.982;11.516;2023-07-16T01:01:24;7.68;;;5.00;;
71106;SDS011;58763;47.982;11.516;2023-07-16T01:03:49;11.50;;;5.13;;
71106;SDS011;58763;47.982;11.516;2023-07-16T01:06:24;10.38;;;4.88;;
71106;SDS011;58763;47.982;11.516;2023-07-16T01:08:58;7.57;;;4.70;;
71106;SDS011;58763;47.982;11.516;2023-07-16T01:11:31;7.00;;;4.53;;
71106;SDS011;58763;47.982;11.516;2023-07-16T01:13:57;11.05;;;5.35;;
71106;SDS011;58763;47.982;11.516;2023-07-16T01:16:24;7.95;;;5.22;;
71106;SDS011;58763;47.982;11.516;2023-07-16T01:18:51;7.05;;;4.93;;
71106;SDS011;58763;47.982;11.516;2023-07-16T01:21:18;8.20;;;4.97;;
71106;SDS011;58763;47.982;11.516;2023-07-16T01:23:50;9.07;;;5.33;;
71106;SDS011;58763;47.982;11.516;2023-07-16T01:26:59;9.35;;;5.43;;
71106;SDS011;58763;47.982;11.516;2023-07-16T01:30:01;8.68;;;5.20;;
71106;SDS011;58763;47.982;11.516;2023-07-16T01:32:29;9.50;;;4.95;;
71106;SDS011;58763;47.982;11.516;2023-07-16T01:34:56;8.45;;;5.15;;
71106;SDS011;58763;47.982;11.516;2023-07-16T01:37:22;6.93;;;4.72;;
71106;SDS011;58763;47.982;11.516;2023-07-16T01:39:48;9.30;;;5.47;;
71106;SDS011;58763;47.982;11.516;2023-07-16T01:42:13;8.15;;;5.25;;
71106;SDS011;58763;47.982;11.516;2023-07-16T01:44:39;7.85;;;5.28;;
71106;SDS011;58763;47.982;11.516;2023-07-16T01:47:06;8.23;;;4.68;;
71106;SDS011;58763;47.982;11.516;2023-07-16T01:49:34;8.10;;;5.05;;
71106;SDS011;58763;47.982;11.516;2023-07-16T01:52:03;8.00;;;4.57;;
71106;SDS011;58763;47.982;11.516;2023-07-16T01:54:30;8.02;;;5.43;;
71106;SDS011;58763;47.982;11.516;2023-07-16T01:56:55;9.57;;;4.97;;
71106;SDS011;58763;47.982;11.516;2023-07-16T01:59:21;6.88;;;4.60;;
71106;SDS011;58763;47.982;11.516;2023-07-16T02:01:46;9.00;;;4.80;;
71106;SDS011;58763;47.982;11.516;2023-07-16T02:04:12;8.20;;;4.93;;
71106;SDS011;58763;47.982;11.516;2023-07-16T02:06:38;8.63;;;4.70;;
71106;SDS011;58763;47.982;11.516;2023-07-16T02:09:03;10.23;;;5.18;;
71106;SDS011;58763;47.982;11.516;2023-07-16T02:11:29;8.68;;;4.93;;
71106;SDS011;58763;47.982;11.516;2023-07-16T02:13:55;8.98;;;4.50;;
71106;SDS011;58763;47.982;11.516;2023-07-16T02:16:20;9.90;;;5.07;;
71106;SDS011;58763;47.982;11.516;2023-07-16T02:18:46;10.10;;;5.82;;
71106;SDS011;58763;47.982;11.516;2023-07-16T02:21:12;7.80;;;4.50;;
71106;SDS011;58763;47.982;11.516;2023-07-16T02:23:37;6.75;;;4.20;;
71106;SDS011;58763;47.982;11.516;2023-07-16T02:26:03;7.70;;;4.35;;
71106;SDS011;58763;47.982;11.516;2023-07-16T02:28:28;7.20;;;4.65;;
71106;SDS011;58763;47.982;11.516;2023-07-16T02:30:54;7.55;;;5.05;;
71106;SDS011;58763;47.982;11.516;2023-07-16T02:33:19;8.52;;;4.40;;
71106;SDS011;58763;47.982;11.516;2023-07-16T02:35:48;9.30;;;4.30;;
71106;SDS011;58763;47.982;11.516;2023-07-16T02:38:14;6.50;;;4.67;;
71106;SDS011;58763;47.982;11.516;2023-07-16T02:40:43;7.40;;;4.63;;
71106;SDS011;58763;47.982;11.516;2023-07-16T02:43:09;7.80;;;4.80;;
71106;SDS011;58763;47.982;11.516;2023-07-16T02:45:35;9.93;;;4.50;;
71106;SDS011;58763;47.982;11.516;2023-07-16T02:48:00;6.10;;;4.20;;
71106;SDS011;58763;47.982;11.516;2023-07-16T02:50:26;7.95;;;4.57;;
71106;SDS011;58763;47.982;11.516;2023-07-16T02:52:51;7.68;;;4.53;;
71106;SDS011;58763;47.982;11.516;2023-07-16T02:55:17;9.38;;;4.75;;
71106;SDS011;58763;47.982;11.516;2023-07-16T02:57:43;6.68;;;4.38;;
71106;SDS011;58763;47.982;11.516;2023-07-16T03:00:08;8.10;;;4.22;;
71106;SDS011;58763;47.982;11.516;2023-07-16T03:02:34;6.45;;;4.25;;
71106;SDS011;58763;47.982;11.516;2023-07-16T03:04:59;8.07;;;4.00;;
71106;SDS011;58763;47.982;11.516;2023-07-16T03:07:25;8.55;;;4.28;;
71106;SDS011;58763;47.982;11.516;2023-07-16T03:09:50;10.00;;;4.55;;
71106;SDS011;58763;47.982;11.516;2023-07-16T03:12:16;8.02;;;4.15;;
71106;SDS011;58763;47.982;11.516;2023-07-16T03:14:41;7.45;;;3.95;;
71106;SDS011;58763;47.982;11.516;2023-07-16T03:17:06;6.93;;;3.97;;
71106;SDS011;58763;47.982;11.516;2023-07-16T03:19:32;7.55;;;4.00;;
71106;SDS011;58763;47.982;11.516;2023-07-16T03:21:58;7.13;;;4.20;;
71106;SDS011;58763;47.982;11.516;2023-07-16T03:24:23;6.97;;;4.13;;
71106;SDS011;58763;47.982;11.516;2023-07-16T03:26:48;6.63;;;4.20;;
71106;SDS011;58763;47.982;11.516;2023-07-16T03:29:14;6.00;;;4.13;;
71106;SDS011;58763;47.982;11.516;2023-07-16T03:31:39;10.15;;;4.32;;
71106;SDS011;58763;47.982;11.516;2023-07-16T03:34:06;6.93;;;4.03;;
71106;SDS011;58763;47.982;11.516;2023-07-16T03:36:32;9.32;;;4.30;;
71106;SDS011;58763;47.982;11.516;2023-07-16T03:38:57;7.00;;;3.67;;
71106;SDS011;58763;47.982;11.516;2023-07-16T03:41:23;7.38;;;4.40;;
71106;SDS011;58763;47.982;11.516;2023-07-16T03:43:48;6.35;;;4.43;;
71106;SDS011;58763;47.982;11.516;2023-07-16T03:46:13;6.35;;;4.28;;
71106;SDS011;58763;47.982;11.516;2023-07-16T03:48:39;6.82;;;4.20;;
71106;SDS011;58763;47.982;11.516;2023-07-16T03:51:04;6.05;;;3.95;;
71106;SDS011;58763;47.982;11.516;2023-07-16T03:53:29;6.38;;;4.20;;
71106;SDS011;58763;47.982;11.516;2023-07-16T03:55:55;7.65;;;4.40;;
71106;SDS011;58763;47.982;11.516;2023-07-16T03:58:20;8.30;;;3.85;;
71106;SDS011;58763;47.982;11.516;2023-07-16T04:00:46;8.60;;;4.03;;
71106;SDS011;58763;47.982;11.516;2023-07-16T04:03:11;6.43;;;3.72;;
71106;SDS011;58763;47.982;11.516;2023-07-16T04:05:36;5.43;;;3.40;;
71106;SDS011;58763;47.982;11.516;2023-07-16T04:08:02;5.80;;;2.95;;
71106;SDS011;58763;47.982;11.516;2023-07-16T04:10:27;5.82;;;3.10;;
71106;SDS011;58763;47.982;11.516;2023-07-16T04:12:53;5.20;;;3.25;;
71106;SDS011;58763;47.982;11.516;2023-07-16T04:15:18;7.30;;;3.28;;
71106;SDS011;58763;47.982;11.516;2023-07-16T04:17:49;6.18;;;3.17;;
71106;SDS011;58763;47.982;11.516;2023-07-16T04:20:14;5.47;;;3.17;;
71106;SDS011;58763;47.982;11.516;2023-07-16T04:22:41;7.00;;;3.13;;
71106;SDS011;58763;47.982;11.516;2023-07-16T04:25:07;5.72;;;2.88;;
71106;SDS011;58763;47.982;11.516;2023-07-16T04:27:32;7.82;;;3.42;;
71106;SDS011;58763;47.982;11.516;2023-07-16T04:29:58;5.63;;;3.47;;
71106;SDS011;58763;47.982;11.516;2023-07-16T04:32:23;5.80;;;2.85;;
71106;SDS011;58763;47.982;11.516;2023-07-16T04:34:49;6.25;;;2.40;;
71106;SDS011;58763;47.982;11.516;2023-07-16T04:37:14;5.28;;;2.15;;
71106;SDS011;58763;47.982;11.516;2023-07-16T04:39:40;6.03;;;2.30;;
71106;SDS011;58763;47.982;11.516;2023-07-16T04:42:05;5.47;;;1.95;;
71106;SDS011;58763;47.982;11.516;2023-07-16T04:44:30;5.93;;;2.38;;
71106;SDS011;58763;47.982;11.516;2023-07-16T04:46:56;4.00;;;2.00;;
71106;SDS011;58763;47.982;11.516;2023-07-16T04:49:21;4.43;;;2.25;;
71106;SDS011;58763;47.982;11.516;2023-07-16T04:51:46;5.05;;;2.38;;
71106;SDS011;58763;47.982;11.516;2023-07-16T04:54:12;5.90;;;2.10;;
71106;SDS011;58763;47.982;11.516;2023-07-16T04:56:38;6.07;;;2.22;;
71106;SDS011;58763;47.982;11.516;2023-07-16T04:59:03;3.95;;;1.88;;
71106;SDS011;58763;47.982;11.516;2023-07-16T05:01:28;5.57;;;2.28;;
71106;SDS011;58763;47.982;11.516;2023-07-16T05:03:54;5.57;;;2.40;;
71106;SDS011;58763;47.982;11.516;2023-07-16T05:06:19;4.22;;;2.33;;
71106;SDS011;58763;47.982;11.516;2023-07-16T05:08:45;5.60;;;2.10;;
71106;SDS011;58763;47.982;11.516;2023-07-16T05:11:11;7.43;;;2.45;;
71106;SDS011;58763;47.982;11.516;2023-07-16T05:13:37;7.00;;;2.28;;
71106;SDS011;58763;47.982;11.516;2023-07-16T05:16:02;5.72;;;2.38;;
71106;SDS011;58763;47.982;11.516;2023-07-16T05:18:28;3.88;;;1.83;;
71106;SDS011;58763;47.982;11.516;2023-07-16T05:20:53;5.57;;;2.30;;
71106;SDS011;58763;47.982;11.516;2023-07-16T05:23:19;6.30;;;2.00;;
71106;SDS011;58763;47.982;11.516;2023-07-16T05:25:48;6.07;;;2.30;;
71106;SDS011;58763;47.982;11.516;2023-07-16T05:28:15;5.45;;;2.40;;
71106;SDS011;58763;47.982;11.516;2023-07-16T05:30:41;5.53;;;2.28;;
71106;SDS011;58763;47.982;11.516;2023-07-16T05:33:06;4.68;;;2.47;;
71106;SDS011;58763;47.982;11.516;2023-07-16T05:35:31;7.40;;;2.40;;
71106;SDS011;58763;47.982;11.516;2023-07-16T05:37:57;6.38;;;2.30;;
71106;SDS011;58763;47.982;11.516;2023-07-16T05:40:22;5.47;;;2.28;;
71106;SDS011;58763;47.982;11.516;2023-07-16T05:42:47;5.28;;;2.20;;
71106;SDS011;58763;47.982;11.516;2023-07-16T05:45:13;7.65;;;2.33;;
71106;SDS011;58763;47.982;11.516;2023-07-16T05:47:38;4.65;;;2.50;;
71106;SDS011;58763;47.982;11.516;2023-07-16T05:50:04;4.45;;;2.30;;
71106;SDS011;58763;47.982;11.516;2023-07-16T05:52:30;5.28;;;1.95;;
71106;SDS011;58763;47.982;11.516;2023-07-16T05:54:56;6.15;;;2.38;;
71106;SDS011;58763;47.982;11.516;2023-07-16T05:57:22;5.40;;;2.00;;
71106;SDS011;58763;47.982;11.516;2023-07-16T05:59:47;7.43;;;2.75;;
71106;SDS011;58763;47.982;11.516;2023-07-16T06:02:13;6.32;;;2.50;;
71106;SDS011;58763;47.982;11.516;2023-07-16T06:04:38;5.88;;;2.70;;
71106;SDS011;58763;47.982;11.516;2023-07-16T06:07:03;4.75;;;2.65;;
71106;SDS011;58763;47.982;11.516;2023-07-16T06:09:29;4.80;;;2.80;;
71106;SDS011;58763;47.982;11.516;2023-07-16T06:11:54;5.28;;;2.63;;
71106;SDS011;58763;47.982;11.516;2023-07-16T06:14:20;6.22;;;2.47;;
71106;SDS011;58763;47.982;11.516;2023-07-16T06:16:45;4.95;;;2.47;;
71106;SDS011;58763;47.982;11.516;2023-07-16T06:19:11;7.43;;;2.40;;
71106;SDS011;58763;47.982;11.516;2023-07-16T06:21:36;5.20;;;2.33;;
71106;SDS011;58763;47.982;11.516;2023-07-16T06:24:01;5.30;;;2.20;;
71106;SDS011;58763;47.982;11.516;2023-07-16T06:26:27;5.65;;;2.30;;
71106;SDS011;58763;47.982;11.516;2023-07-16T06:28:52;3.97;;;2.25;;
71106;SDS011;58763;47.982;11.516;2023-07-16T06:31:18;7.28;;;2.28;;
71106;SDS011;58763;47.982;11.516;2023-07-16T06:33:43;6.45;;;2.28;;
71106;SDS011;58763;47.982;11.516;2023-07-16T06:36:11;3.88;;;2.20;;
71106;SDS011;58763;47.982;11.516;2023-07-16T06:38:37;5.53;;;2.10;;
71106;SDS011;58763;47.982;11.516;2023-07-16T06:41:02;3.58;;;1.88;;
71106;SDS011;58763;47.982;11.516;2023-07-16T06:43:27;3.67;;;1.65;;
71106;SDS011;58763;47.982;11.516;2023-07-16T06:45:53;5.28;;;1.70;;
71106;SDS011;58763;47.982;11.516;2023-07-16T06:48:18;3.83;;;1.70;;
71106;SDS011;58763;47.982;11.516;2023-07-16T06:50:43;3.70;;;1.77;;
71106;SDS011;58763;47.982;11.516;2023-07-16T06:53:09;4.55;;;1.55;;
71106;SDS011;58763;47.982;11.516;2023-07-16T06:55:34;4.85;;;1.90;;
71106;SDS011;58763;47.982;11.516;2023-07-16T06:58:00;2.90;;;1.60;;
71106;SDS011;58763;47.982;11.516;2023-07-16T07:00:26;3.20;;;1.42;;
71106;SDS011;58763;47.982;11.516;2023-07-16T07:02:51;3.20;;;1.50;;
71106;SDS011;58763;47.982;11.516;2023-07-16T07:05:17;3.88;;;1.52;;
71106;SDS011;58763;47.982;11.516;2023-07-16T07:07:42;3.30;;;1.15;;
71106;SDS011;58763;47.982;11.516;2023-07-16T07:10:10;3.65;;;1.42;;
71106;SDS011;58763;47.982;11.516;2023-07-16T07:12:36;4.32;;;1.42;;
71106;SDS011;58763;47.982;11.516;2023-07-16T07:15:06;4.03;;;1.33;;
71106;SDS011;58763;47.982;11.516;2023-07-16T07:17:32;2.90;;;1.33;;
71106;SDS011;58763;47.982;11.516;2023-07-16T07:19:57;4.30;;;1.50;;
71106;SDS011;58763;47.982;11.516;2023-07-16T07:22:23;4.43;;;1.75;;
71106;SDS011;58763;47.982;11.516;2023-07-16T07:24:48;2.67;;;1.30;;
71106;SDS011;58763;47.982;11.516;2023-07-16T07:27:14;3.15;;;1.50;;
71106;SDS011;58763;47.982;11.516;2023-07-16T07:29:39;3.58;;;1.55;;
71106;SDS011;58763;47.982;11.516;2023-07-16T07:32:05;3.60;;;1.40;;
71106;SDS011;58763;47.982;11.516;2023-07-16T07:34:31;5.18;;;1.60;;
71106;SDS011;58763;47.982;11.516;2023-07-16T07:36:56;5.55;;;1.48;;
71106;SDS011;58763;47.982;11.516;2023-07-16T07:39:22;4.65;;;1.67;;
71106;SDS011;58763;47.982;11.516;2023-07-16T07:41:47;3.95;;;1.52;;
71106;SDS011;58763;47.982;11.516;2023-07-16T07:44:12;2.95;;;1.35;;
71106;SDS011;58763;47.982;11.516;2023-07-16T07:46:38;3.42;;;1.50;;
71106;SDS011;58763;47.982;11.516;2023-07-16T07:49:03;2.83;;;1.30;;
71106;SDS011;58763;47.982;11.516;2023-07-16T07:51:29;2.60;;;1.30;;
71106;SDS011;58763;47.982;11.516;2023-07-16T07:53:54;3.47;;;1.17;;
71106;SDS011;58763;47.982;11.516;2023-07-16T07:56:20;3.17;;;1.60;;
71106;SDS011;58763;47.982;11.516;2023-07-16T07:58:45;2.63;;;1.38;;
71106;SDS011;58763;47.982;11.516;2023-07-16T08:01:10;2.92;;;1.40;;
71106;SDS011;58763;47.982;11.516;2023-07-16T08:03:36;2.95;;;1.40;;
71106;SDS011;58763;47.982;11.516;2023-07-16T08:06:01;2.60;;;1.42;;
71106;SDS011;58763;47.982;11.516;2023-07-16T08:08:27;2.85;;;1.27;;
71106;SDS011;58763;47.982;11.516;2023-07-16T08:10:53;3.08;;;1.55;;
71106;SDS011;58763;47.982;11.516;2023-07-16T08:13:19;3.88;;;1.67;;
71106;SDS011;58763;47.982;11.516;2023-07-16T08:15:45;4.57;;;1.63;;
71106;SDS011;58763;47.982;11.516;2023-07-16T08:18:10;3.25;;;1.17;;
71106;SDS011;58763;47.982;11.516;2023-07-16T08:20:38;2.83;;;1.35;;
71106;SDS011;58763;47.982;11.516;2023-07-16T08:23:09;3.80;;;1.65;;
71106;SDS011;58763;47.982;11.516;2023-07-16T08:25:35;3.60;;;1.65;;
71106;SDS011;58763;47.982;11.516;2023-07-16T08:28:03;2.90;;;1.48;;
71106;SDS011;58763;47.982;11.516;2023-07-16T08:30:29;4.20;;;1.60;;
71106;SDS011;58763;47.982;11.516;2023-07-16T08:32:54;3.70;;;1.70;;
71106;SDS011;58763;47.982;11.516;2023-07-16T08:35:20;4.80;;;2.05;;
71106;SDS011;58763;47.982;11.516;2023-07-16T08:37:45;4.07;;;1.50;;
71106;SDS011;58763;47.982;11.516;2023-07-16T08:40:11;2.95;;;1.50;;
71106;SDS011;58763;47.982;11.516;2023-07-16T08:42:41;3.85;;;1.40;;
71106;SDS011;58763;47.982;11.516;2023-07-16T08:45:09;2.55;;;1.15;;
71106;SDS011;58763;47.982;11.516;2023-07-16T08:47:35;2.42;;;1.20;;
71106;SDS011;58763;47.982;11.516;2023-07-16T08:50:01;3.35;;;1.40;;
71106;SDS011;58763;47.982;11.516;2023-07-16T08:52:27;2.78;;;1.23;;
71106;SDS011;58763;47.982;11.516;2023-07-16T08:54:53;4.38;;;1.42;;
71106;SDS011;58763;47.982;11.516;2023-07-16T08:57:19;4.63;;;1.55;;
71106;SDS011;58763;47.982;11.516;2023-07-16T08:59:49;3.83;;;1.58;;
71106;SDS011;58763;47.982;11.516;2023-07-16T09:02:16;3.43;;;1.60;;
71106;SDS011;58763;47.982;11.516;2023-07-16T09:04:43;3.25;;;1.60;;
71106;SDS011;58763;47.982;11.516;2023-07-16T09:07:08;3.20;;;1.80;;
71106;SDS011;58763;47.982;11.516;2023-07-16T09:09:34;4.25;;;1.90;;
71106;SDS011;58763;47.982;11.516;2023-07-16T09:11:59;3.35;;;1.52;;
71106;SDS011;58763;47.982;11.516;2023-07-16T09:14:25;3.75;;;1.60;;
71106;SDS011;58763;47.982;11.516;2023-07-16T09:16:51;2.42;;;1.25;;
71106;SDS011;58763;47.982;11.516;2023-07-16T09:19:17;2.63;;;1.35;;
71106;SDS011;58763;47.982;11.516;2023-07-16T09:21:46;3.17;;;1.40;;
71106;SDS011;58763;47.982;11.516;2023-07-16T09:24:15;4.07;;;1.30;;
71106;SDS011;58763;47.982;11.516;2023-07-16T09:26:52;2.70;;;1.33;;
71106;SDS011;58763;47.982;11.516;2023-07-16T09:29:18;2.65;;;1.30;;
71106;SDS011;58763;47.982;11.516;2023-07-16T09:31:54;4.38;;;1.02;;
71106;SDS011;58763;47.982;11.516;2023-07-16T09:34:20;3.30;;;1.30;;
71106;SDS011;58763;47.982;11.516;2023-07-16T09:36:49;2.55;;;1.17;;
71106;SDS011;58763;47.982;11.516;2023-07-16T09:39:16;2.95;;;1.30;;
71106;SDS011;58763;47.982;11.516;2023-07-16T09:41:43;2.80;;;1.25;;
71106;SDS011;58763;47.982;11.516;2023-07-16T09:44:09;3.35;;;1.20;;
71106;SDS011;58763;47.982;11.516;2023-07-16T09:46:36;2.78;;;0.90;;
71106;SDS011;58763;47.982;11.516;2023-07-16T09:49:02;2.50;;;1.02;;
71106;SDS011;58763;47.982;11.516;2023-07-16T09:51:27;4.22;;;1.40;;
71106;SDS011;58763;47.982;11.516;2023-07-16T09:53:57;2.78;;;1.20;;
71106;SDS011;58763;47.982;11.516;2023-07-16T09:56:26;3.78;;;1.27;;
71106;SDS011;58763;47.982;11.516;2023-07-16T09:58:58;3.67;;;1.60;;
71106;SDS011;58763;47.982;11.516;2023-07-16T10:01:26;2.67;;;1.30;;
71106;SDS011;58763;47.982;11.516;2023-07-16T10:03:52;3.38;;;1.52;;
71106;SDS011;58763;47.982;11.516;2023-07-16T10:06:17;3.25;;;1.40;;
71106;SDS011;58763;47.982;11.516;2023-07-16T10:08:48;2.20;;;1.10;;
71106;SDS011;58763;47.982;11.516;2023-07-16T10:11:15;3.22;;;1.45;;
71106;SDS011;58763;47.982;11.516;2023-07-16T10:13:42;2.47;;;1.20;;
71106;SDS011;58763;47.982;11.516;2023-07-16T10:16:09;5.38;;;1.42;;
71106;SDS011;58763;47.982;11.516;2023-07-16T10:18:50;2.83;;;1.27;;
71106;SDS011;58763;47.982;11.516;2023-07-16T10:21:22;2.42;;;1.30;;
71106;SDS011;58763;47.982;11.516;2023-07-16T10:23:56;2.78;;;1.35;;
71106;SDS011;58763;47.982;11.516;2023-07-16T10:26:26;4.88;;;1.40;;
71106;SDS011;58763;47.982;11.516;2023-07-16T10:31:23;3.15;;;1.42;;
71106;SDS011;58763;47.982;11.516;2023-07-16T10:33:58;2.70;;;1.48;;
71106;SDS011;58763;47.982;11.516;2023-07-16T10:36:24;2.80;;;1.40;;
71106;SDS011;58763;47.982;11.516;2023-07-16T10:38:50;3.25;;;1.40;;
71106;SDS011;58763;47.982;11.516;2023-07-16T10:41:15;2.80;;;1.33;;
71106;SDS011;58763;47.982;11.516;2023-07-16T10:43:40;3.17;;;1.35;;
71106;SDS011;58763;47.982;11.516;2023-07-16T10:46:06;2.47;;;1.23;;
71106;SDS011;58763;47.982;11.516;2023-07-16T10:48:31;3.47;;;1.10;;
71106;SDS011;58763;47.982;11.516;2023-07-16T10:50:56;2.70;;;1.27;;
71106;SDS011;58763;47.982;11.516;2023-07-16T10:53:22;2.22;;;1.08;;
71106;SDS011;58763;47.982;11.516;2023-07-16T10:55:47;2.72;;;1.30;;
71106;SDS011;58763;47.982;11.516;2023-07-16T10:58:13;2.92;;;1.10;;
71106;SDS011;58763;47.982;11.516;2023-07-16T11:00:59;2.03;;;1.00;;
71106;SDS011;58763;47.982;11.516;2023-07-16T11:03:32;3.03;;;1.30;;
71106;SDS011;58763;47.982;11.516;2023-07-16T11:06:05;2.60;;;1.23;;
71106;SDS011;58763;47.982;11.516;2023-07-16T11:08:31;2.88;;;1.17;;
71106;SDS011;58763;47.982;11.516;2023-07-16T11:10:56;3.70;;;1.10;;
71106;SDS011;58763;47.982;11.516;2023-07-16T11:13:29;2.88;;;1.15;;
71106;SDS011;58763;47.982;11.516;2023-07-16T11:15:56;2.53;;;1.20;;
71106;SDS011;58763;47.982;11.516;2023-07-16T11:18:22;3.33;;;1.30;;
71106;SDS011;58763;47.982;11.516;2023-07-16T11:20:52;2.22;;;1.05;;
71106;SDS011;58763;47.982;11.516;2023-07-16T11:23:18;3.00;;;0.98;;
71106;SDS011;58763;47.982;11.516;2023-07-16T11:25:47;2.65;;;1.35;;
71106;SDS011;58763;47.982;11.516;2023-07-16T11:28:14;2.67;;;1.30;;
71106;SDS011;58763;47.982;11.516;2023-07-16T11:30:39;3.63;;;1.25;;
71106;SDS011;58763;47.982;11.516;2023-07-16T11:33:09;3.33;;;1.42;;
71106;SDS011;58763;47.982;11.516;2023-07-16T11:35:35;2.25;;;1.05;;
71106;SDS011;58763;47.982;11.516;2023-07-16T11:38:01;2.65;;;1.23;;
71106;SDS011;58763;47.982;11.516;2023-07-16T11:40:27;2.70;;;1.20;;
71106;SDS011;58763;47.982;11.516;2023-07-16T11:42:53;2.60;;;1.20;;
71106;SDS011;58763;47.982;11.516;2023-07-16T11:45:20;4.32;;;1.20;;
71106;SDS011;58763;47.982;11.516;2023-07-16T11:47:48;2.43;;;1.10;;
71106;SDS011;58763;47.982;11.516;2023-07-16T11:50:15;3.38;;;1.20;;
71106;SDS011;58763;47.982;11.516;2023-07-16T11:52:40;2.58;;;1.17;;
71106;SDS011;58763;47.982;11.516;2023-07-16T11:55:06;2.25;;;1.05;;
71106;SDS011;58763;47.982;11.516;2023-07-16T11:57:34;3.03;;;1.10;;
71106;SDS011;58763;47.982;11.516;2023-07-16T12:00:00;2.70;;;1.10;;
71106;SDS011;58763;47.982;11.516;2023-07-16T12:02:25;2.92;;;1.20;;
71106;SDS011;58763;47.982;11.516;2023-07-16T12:04:52;3.08;;;1.30;;
71106;SDS011;58763;47.982;11.516;2023-07-16T12:07:36;2.28;;;1.00;;
71106;SDS011;58763;47.982;11.516;2023-07-16T12:10:04;3.33;;;1.23;;
71106;SDS011;58763;47.982;11.516;2023-07-16T12:12:31;2.35;;;0.98;;
71106;SDS011;58763;47.982;11.516;2023-07-16T12:14:57;2.92;;;1.27;;
71106;SDS011;58763;47.982;11.516;2023-07-16T12:17:22;2.58;;;1.00;;
71106;SDS011;58763;47.982;11.516;2023-07-16T12:19:48;2.58;;;1.17;;
71106;SDS011;58763;47.982;11.516;2023-07-16T12:22:13;3.33;;;1.20;;
71106;SDS011;58763;47.982;11.516;2023-07-16T12:24:42;2.63;;;1.15;;
71106;SDS011;58763;47.982;11.516;2023-07-16T12:27:07;2.50;;;1.15;;
71106;SDS011;58763;47.982;11.516;2023-07-16T12:29:33;3.60;;;1.27;;
71106;SDS011;58763;47.982;11.516;2023-07-16T12:31:58;4.50;;;1.38;;
71106;SDS011;58763;47.982;11.516;2023-07-16T12:34:27;2.72;;;1.35;;
71106;SDS011;58763;47.982;11.516;2023-07-16T12:36:53;2.80;;;1.23;;
71106;SDS011;58763;47.982;11.516;2023-07-16T12:39:20;2.45;;;1.10;;
71106;SDS011;58763;47.982;11.516;2023-07-16T12:41:46;3.45;;;1.23;;
71106;SDS011;58763;47.982;11.516;2023-07-16T12:44:12;3.35;;;1.33;;
71106;SDS011;58763;47.982;11.516;2023-07-16T12:46:37;3.92;;;1.20;;
71106;SDS011;58763;47.982;11.516;2023-07-16T12:49:03;3.25;;;1.38;;
71106;SDS011;58763;47.982;11.516;2023-07-16T12:51:28;2.38;;;1.15;;
71106;SDS011;58763;47.982;11.516;2023-07-16T12:53:53;3.50;;;1.30;;
71106;SDS011;58763;47.982;11.516;2023-07-16T12:56:19;2.42;;;1.10;;
71106;SDS011;58763;47.982;11.516;2023-07-16T12:58:44;2.45;;;1.15;;
71106;SDS011;58763;47.982;11.516;2023-07-16T13:01:10;2.70;;;1.23;;
71106;SDS011;58763;47.982;11.516;2023-07-16T13:03:35;3.20;;;1.40;;
71106;SDS011;58763;47.982;11.516;2023-07-16T13:06:01;4.03;;;1.35;;
71106;SDS011;58763;47.982;11.516;2023-07-16T13:08:28;4.25;;;1.30;;
71106;SDS011;58763;47.982;11.516;2023-07-16T13:10:54;2.78;;;1.40;;
71106;SDS011;58763;47.982;11.516;2023-07-16T13:13:19;2.90;;;1.27;;
71106;SDS011;58763;47.982;11.516;2023-07-16T13:15:45;4.50;;;1.30;;
71106;SDS011;58763;47.982;11.516;2023-07-16T13:18:10;2.83;;;1.30;;
71106;SDS011;58763;47.982;11.516;2023-07-16T13:20:36;2.33;;;1.20;;
71106;SDS011;58763;47.982;11.516;2023-07-16T13:23:02;3.15;;;1.45;;
71106;SDS011;58763;47.982;11.516;2023-07-16T13:25:29;3.35;;;1.50;;
71106;SDS011;58763;47.982;11.516;2023-07-16T13:27:55;3.15;;;1.48;;
71106;SDS011;58763;47.982;11.516;2023-07-16T13:30:20;2.50;;;1.30;;
71106;SDS011;58763;47.982;11.516;2023-07-16T13:32:46;2.88;;;1.40;;
71106;SDS011;58763;47.982;11.516;2023-07-16T13:35:14;2.45;;;1.10;;
71106;SDS011;58763;47.982;11.516;2023-07-16T13:37:52;3.75;;;1.33;;
71106;SDS011;58763;47.982;11.516;2023-07-16T13:40:18;3.35;;;1.50;;
71106;SDS011;58763;47.982;11.516;2023-07-16T13:42:46;3.72;;;1.50;;
71106;SDS011;58763;47.982;11.516;2023-07-16T13:45:13;3.30;;;1.30;;
71106;SDS011;58763;47.982;11.516;2023-07-16T13:47:38;3.40;;;1.48;;
71106;SDS011;58763;47.982;11.516;2023-07-16T13:50:07;2.78;;;1.25;;
71106;SDS011;58763;47.982;11.516;2023-07-16T13:52:35;3.15;;;1.35;;
71106;SDS011;58763;47.982;11.516;2023-07-16T13:55:01;2.38;;;1.30;;
71106;SDS011;58763;47.982;11.516;2023-07-16T13:57:28;3.15;;;1.70;;
71106;SDS011;58763;47.982;11.516;2023-07-16T13:59:54;3.33;;;1.65;;
71106;SDS011;58763;47.982;11.516;2023-07-16T14:02:20;3.78;;;1.50;;
71106;SDS011;58763;47.982;11.516;2023-07-16T14:04:45;3.08;;;1.58;;
71106;SDS011;58763;47.982;11.516;2023-07-16T14:07:11;2.65;;;1.27;;
71106;SDS011;58763;47.982;11.516;2023-07-16T14:09:36;4.25;;;1.60;;
71106;SDS011;58763;47.982;11.516;2023-07-16T14:12:02;2.95;;;1.35;;
71106;SDS011;58763;47.982;11.516;2023-07-16T14:14:28;3.55;;;1.90;;
71106;SDS011;58763;47.982;11.516;2023-07-16T14:16:53;2.97;;;1.35;;
71106;SDS011;58763;47.982;11.516;2023-07-16T14:19:20;3.75;;;1.65;;
71106;SDS011;58763;47.982;11.516;2023-07-16T14:21:46;3.25;;;1.80;;
71106;SDS011;58763;47.982;11.516;2023-07-16T14:24:12;3.75;;;1.50;;
71106;SDS011;58763;47.982;11.516;2023-07-16T14:26:37;2.83;;;1.65;;
71106;SDS011;58763;47.982;11.516;2023-07-16T14:29:03;4.55;;;1.75;;
71106;SDS011;58763;47.982;11.516;2023-07-16T14:31:29;4.78;;;1.70;;